Time;durP1;ratioP1;P1;durP2;ratioP2;P2;SDS_P1;SDS_P2;PMS_P1;PMS_P2;Temp;Humidity;BMP_temperature;BMP_pressure;BME280_temperature;BME280_humidity;BME280_pressure;Samples;Min_cycle;Max_cycle;Signal;HPM_P1;HPM_P2
2023/11/26 00:02:05;;;;;;;6.03;3.80;;;;;;;1.64;57.16;98014.50;5038829;28;20566;-91
2023/11/26 00:04:32;;;;;;;8.68;3.92;;;;;;;1.62;56.58;97984.81;5044310;28;20135;-91
2023/11/26 00:06:58;;;;;;;7.35;4.35;;;;;;;1.46;57.05;97977.03;5043896;28;20056;-91
2023/11/26 00:09:24;;;;;;;11.27;4.45;;;;;;;2.32;55.93;98086.75;5036934;28;20044;-90
2023/11/26 00:11:50;;;;;;;9.32;3.72;;;;;;;2.00;56.73;98009.97;5038711;28;20453;-89
2023/11/26 00:14:17;;;;;;;6.47;4.03;;;;;;;2.25;56.98;98026.44;5042694;28;20049;-90
2023/11/26 00:16:44;;;;;;;12.82;4.80;;;;;;;2.11;58.74;98048.41;5040080;28;20139;-90
2023/11/26 00:19:10;;;;;;;10.10;4.78;;;;;;;1.90;56.57;98002.16;5044142;28;20044;-90
2023/11/26 00:21:37;;;;;;;10.40;4.70;;;;;;;2.84;56.53;98146.81;5038880;28;20050;-89
2023/11/26 00:24:03;;;;;;;7.10;4.35;;;;;;;2.19;56.49;98013.38;5042038;28;20068;-92
2023/11/26 00:26:29;;;;;;;10.68;4.35;;;;;;;1.69;55.33;97954.19;5039610;28;20045;-90
2023/11/26 00:28:55;;;;;;;7.65;3.33;;;;;;;2.37;54.11;98056.13;5042104;28;20642;-92
2023/11/26 00:31:21;;;;;;;8.75;4.47;;;;;;;2.77;54.50;98129.38;5036594;28;20049;-90
2023/11/26 00:33:48;;;;;;;7.82;4.47;;;;;;;2.84;53.51;98116.22;5043327;28;20099;-90
2023/11/26 00:36:15;;;;;;;7.35;3.78;;;;;;;2.61;55.15;98053.34;5043569;28;20041;-91
2023/11/26 00:38:42;;;;;;;6.32;3.20;;;;;;;3.01;56.81;98102.94;5045941;28;20044;-90
2023/11/26 00:41:08;;;;;;;5.85;3.45;;;;;;;2.71;56.55;98114.53;5042095;28;20041;-90
2023/11/26 00:43:33;;;;;;;7.05;4.28;;;;;;;1.96;56.52;98013.50;5040764;28;20051;-90
2023/11/26 00:46:00;;;;;;;5.93;3.63;;;;;;;2.40;56.62;98087.59;5036211;28;20053;-92
2023/11/26 00:48:27;;;;;;;5.97;3.72;;;;;;;2.44;56.63;98084.06;5042034;28;20067;-92
2023/11/26 00:50:52;;;;;;;6.75;4.03;;;;;;;2.32;59.01;98107.75;5046360;28;20072;-93
2023/11/26 00:53:18;;;;;;;7.40;4.35;;;;;;;1.68;59.69;97985.69;5042350;28;20053;-93
2023/11/26 00:55:46;;;;;;;7.15;4.22;;;;;;;1.91;56.76;98059.84;5044861;28;20159;-91
2023/11/26 00:58:12;;;;;;;6.88;3.33;;;;;;;2.56;59.00;98141.75;5039564;28;20097;-92
2023/11/26 01:00:38;;;;;;;7.30;4.10;;;;;;;2.28;56.96;98106.91;5039924;28;20494;-90
2023/11/26 01:03:04;;;;;;;7.88;3.33;;;;;;;2.65;59.05;98130.31;5043333;28;20099;-93
2023/11/26 01:05:29;;;;;;;5.63;3.22;;;;;;;2.16;59.61;98057.09;5038271;28;20566;-92
2023/11/26 01:07:55;;;;;;;5.35;3.47;;;;;;;2.46;57.65;98119.03;5042267;28;20491;-92
2023/11/26 01:10:21;;;;;;;9.20;3.95;;;;;;;2.43;59.93;98121.69;5036681;28;20552;-92
2023/11/26 01:12:49;;;;;;;6.43;3.58;;;;;;;1.90;61.63;98031.00;5041537;28;20041;-93
2023/11/26 01:15:15;;;;;;;7.50;3.28;;;;;;;1.36;57.88;97999.75;5038842;28;20099;-94
2023/11/26 01:17:42;;;;;;;7.38;4.05;;;;;;;1.21;58.23;97985.84;5040857;28;20021;-91
2023/11/26 01:20:10;;;;;;;9.52;3.88;;;;;;;2.11;57.66;98083.38;5056141;28;20410;-93
2023/11/26 01:22:36;;;;;;;7.28;3.95;;;;;;;1.81;57.87;98037.16;5042015;28;20411;-90
2023/11/26 01:25:02;;;;;;;7.13;3.95;;;;;;;2.64;58.77;98176.69;5039827;28;20055;-91
2023/11/26 01:27:27;;;;;;;6.00;3.60;;;;;;;1.44;61.07;98035.53;5042162;28;20055;-90
2023/11/26 01:29:56;;;;;;;7.35;3.55;;;;;;;1.17;61.42;97967.50;5043817;28;20045;-91
2023/11/26 01:32:21;;;;;;;6.45;3.72;;;;;;;1.79;61.08;98075.63;5038753;28;20075;-93
2023/11/26 01:34:47;;;;;;;5.20;3.17;;;;;;;1.74;63.42;98149.03;5040665;28;20064;-92
2023/11/26 01:37:13;;;;;;;5.65;2.80;;;;;;;1.58;63.56;98142.94;5044877;28;20448;-91
2023/11/26 01:39:39;;;;;;;5.57;2.75;;;;;;;1.19;64.91;98049.53;5043793;28;20048;-91
2023/11/26 01:42:05;;;;;;;4.15;2.78;;;;;;;1.05;65.21;98056.56;5043287;28;20045;-91
2023/11/26 01:44:31;;;;;;;6.93;2.65;;;;;;;1.08;65.40;98070.50;5045319;28;20406;-91
2023/11/26 01:47:03;;;;;;;6.50;2.97;;;;;;;1.17;64.97;98061.75;5038442;28;20694;-91
2023/11/26 01:49:29;;;;;;;4.75;2.70;;;;;;;1.12;64.90;98058.28;5039718;28;20136;-91
2023/11/26 01:51:56;;;;;;;5.22;2.92;;;;;;;1.15;65.64;98053.03;5039680;28;20103;-91
2023/11/26 01:54:22;;;;;;;4.03;2.50;;;;;;;1.12;66.26;98105.41;5041325;28;20053;-91
2023/11/26 01:56:48;;;;;;;11.30;3.42;;;;;;;0.16;66.11;98042.50;5043915;28;20560;-90
2023/11/26 01:59:14;;;;;;;4.07;2.97;;;;;;;0.45;69.16;98125.38;5041918;28;20176;-91
2023/11/26 02:01:41;;;;;;;2.70;1.80;;;;;;;0.52;68.21;98076.56;5037230;28;20442;-91
2023/11/26 02:04:08;;;;;;;4.53;2.72;;;;;;;0.35;68.86;98032.09;5037813;28;20098;-91
2023/11/26 02:06:34;;;;;;;5.25;2.65;;;;;;;0.49;67.81;98045.19;5042887;28;20493;-91
2023/11/26 02:09:00;;;;;;;5.22;2.60;;;;;;;1.27;68.15;98162.16;5039038;28;20041;-92
2023/11/26 02:11:26;;;;;;;4.65;3.30;;;;;;;0.30;68.16;98065.19;5037007;28;20052;-91
2023/11/26 02:13:54;;;;;;;5.07;2.55;;;;;;;0.16;67.45;98044.25;5039472;28;20471;-91
2023/11/26 02:16:20;;;;;;;3.70;2.50;;;;;;;-0.04;66.30;97963.19;5035483;28;20064;-92
2023/11/26 02:18:46;;;;;;;5.65;2.20;;;;;;;0.28;65.82;98005.03;5040608;28;20473;-92
2023/11/26 02:21:14;;;;;;;5.18;3.25;;;;;;;0.80;65.29;98075.75;5038693;28;20510;-93
2023/11/26 02:23:41;;;;;;;4.78;2.72;;;;;;;0.31;66.13;98006.81;5042069;28;20048;-91
2023/11/26 02:26:09;;;;;;;5.50;2.85;;;;;;;0.87;66.25;98094.06;5043472;28;20496;-92
2023/11/26 02:28:35;;;;;;;5.07;2.45;;;;;;;1.38;66.67;98160.41;5043524;28;20040;-93
2023/11/26 02:31:01;;;;;;;5.88;2.45;;;;;;;1.28;67.43;98148.19;5039567;28;20514;-92
2023/11/26 02:33:27;;;;;;;6.85;2.78;;;;;;;0.85;67.74;98101.03;5042199;28;20161;-91
2023/11/26 02:35:53;;;;;;;4.50;2.85;;;;;;;0.94;67.63;98127.25;5044637;28;20114;-92
2023/11/26 02:38:19;;;;;;;7.80;2.67;;;;;;;0.51;67.15;98059.16;5038440;28;20053;-93
2023/11/26 02:40:48;;;;;;;4.82;3.20;;;;;;;1.23;65.92;98179.63;5039338;28;20948;-92
2023/11/26 02:43:15;;;;;;;5.03;2.40;;;;;;;0.55;65.38;98069.63;5041182;28;20049;-88
2023/11/26 02:45:41;;;;;;;5.18;2.70;;;;;;;1.21;65.48;98176.13;5039899;28;20108;-90
2023/11/26 02:48:08;;;;;;;3.78;2.72;;;;;;;1.00;66.13;98156.06;5040304;28;20068;-90
2023/11/26 02:50:34;;;;;;;5.22;2.53;;;;;;;0.61;66.04;98080.09;5039106;28;20494;-90
2023/11/26 02:52:59;;;;;;;4.95;2.90;;;;;;;0.32;65.92;98021.63;5050450;28;20098;-92
2023/11/26 02:55:25;;;;;;;3.60;2.67;;;;;;;1.19;67.03;98167.38;5044442;28;20041;-92
2023/11/26 02:57:51;;;;;;;3.92;2.50;;;;;;;0.94;67.12;98082.75;5044247;28;20060;-92
2023/11/26 03:00:20;;;;;;;6.75;2.60;;;;;;;1.19;67.36;98129.00;5042000;28;20052;-90
2023/11/26 03:02:46;;;;;;;5.03;2.75;;;;;;;0.24;67.84;98011.16;5040783;28;20052;-91
2023/11/26 03:05:21;;;;;;;6.93;2.72;;;;;;;0.93;68.47;98172.59;5021717;28;20159;-94
2023/11/26 03:07:51;;;;;;;6.10;2.90;;;;;;;-0.12;69.12;97998.88;5042562;28;20102;-91
2023/11/26 03:13:21;;;;;;;4.97;1.92;;;;;;;0.49;69.11;98087.91;5092054;27;20378;-91
2023/11/26 03:15:49;;;;;;;5.38;2.05;;;;;;;0.44;68.64;98092.28;5088840;28;20044;-93
2023/11/26 03:18:17;;;;;;;5.85;2.15;;;;;;;0.19;68.47;98042.50;5090547;28;20123;-91
2023/11/26 03:20:43;;;;;;;3.50;1.83;;;;;;;0.64;67.79;98096.66;5089241;28;20135;-94
2023/11/26 03:23:09;;;;;;;3.95;2.03;;;;;;;0.22;68.40;98048.63;5090374;28;20060;-92
2023/11/26 03:25:36;;;;;;;3.10;2.15;;;;;;;0.22;68.96;98074.75;5089924;28;20109;-94
2023/11/26 03:28:04;;;;;;;3.75;2.00;;;;;;;0.30;70.27;98084.38;5090341;28;20131;-90
2023/11/26 03:30:31;;;;;;;4.70;1.90;;;;;;;0.13;70.12;98060.81;5087584;28;20046;-92
2023/11/26 03:32:57;;;;;;;6.03;2.45;;;;;;;0.92;69.24;98202.28;5090253;28;20037;-91
2023/11/26 03:35:24;;;;;;;3.92;1.75;;;;;;;0.98;69.42;98192.69;5090061;28;20115;-92
2023/11/26 03:37:51;;;;;;;5.82;2.47;;;;;;;0.78;70.34;98176.06;5090572;28;20041;-90
2023/11/26 03:40:19;;;;;;;4.85;2.10;;;;;;;0.52;69.45;98121.03;5089388;28;20059;-90
2023/11/26 03:42:45;;;;;;;3.15;1.92;;;;;;;0.46;69.49;98108.84;5090251;28;20040;-91
2023/11/26 03:45:11;;;;;;;4.40;1.67;;;;;;;0.68;69.46;98161.22;5087445;28;20042;-91
2023/11/26 03:47:39;;;;;;;5.90;2.35;;;;;;;-0.66;70.76;98029.97;5090003;28;20032;-91
2023/11/26 03:50:09;;;;;;;5.05;2.25;;;;;;;0.13;70.27;98164.50;5090320;28;20060;-93
2023/11/26 03:52:35;;;;;;;3.38;1.52;;;;;;;0.28;68.88;98161.06;5090682;28;20094;-93
2023/11/26 03:55:01;;;;;;;3.97;1.95;;;;;;;-0.31;71.22;98128.56;5090585;28;20485;-92
2023/11/26 03:57:27;;;;;;;5.35;2.15;;;;;;;0.25;71.52;98224.69;5089942;28;20135;-91
2023/11/26 03:59:52;;;;;;;3.85;1.92;;;;;;;-0.36;71.16;98102.41;5090514;28;20060;-92
2023/11/26 04:02:18;;;;;;;4.03;2.08;;;;;;;0.23;70.72;98187.22;5087865;28;20035;-91
2023/11/26 04:04:46;;;;;;;3.75;1.65;;;;;;;-0.04;70.00;98120.88;5090384;28;20048;-93
2023/11/26 04:07:12;;;;;;;4.22;2.22;;;;;;;0.02;70.05;98125.22;5089646;28;20098;-91
2023/11/26 04:09:38;;;;;;;4.13;1.85;;;;;;;0.16;69.15;98126.19;5090095;28;20044;-92
2023/11/26 04:12:07;;;;;;;3.47;1.55;;;;;;;0.18;70.36;98152.34;5090355;28;20051;-93
2023/11/26 04:14:34;;;;;;;3.78;2.42;;;;;;;0.14;69.76;98114.84;5090207;28;20040;-92
2023/11/26 04:17:00;;;;;;;4.13;1.55;;;;;;;0.64;71.29;98204.81;5088118;28;20486;-93
2023/11/26 04:19:27;;;;;;;4.40;1.67;;;;;;;0.32;71.08;98183.75;5089773;28;20036;-90
2023/11/26 04:21:54;;;;;;;2.63;1.35;;;;;;;-0.25;70.59;98060.66;5089219;28;20036;-92
2023/11/26 04:24:20;;;;;;;2.50;1.65;;;;;;;-0.49;70.33;98038.78;5077758;28;20062;-91
2023/11/26 04:26:46;;;;;;;5.50;1.80;;;;;;;-0.10;70.89;98117.34;5076667;28;20044;-91
2023/11/26 04:29:12;;;;;;;2.90;1.77;;;;;;;0.43;70.48;98179.44;5076772;28;20067;-93
2023/11/26 04:31:38;;;;;;;3.00;1.33;;;;;;;0.60;71.29;98221.38;5073873;28;20048;-93
2023/11/26 04:34:04;;;;;;;2.25;1.33;;;;;;;0.13;70.20;98136.63;5076988;28;20044;-92
2023/11/26 04:36:31;;;;;;;2.40;1.20;;;;;;;-0.36;69.65;98031.00;5076886;28;20036;-92
2023/11/26 04:38:59;;;;;;;3.35;2.05;;;;;;;-0.17;70.08;98102.50;5076857;28;20517;-93
2023/11/26 04:41:26;;;;;;;3.03;1.67;;;;;;;-0.07;70.19;98101.69;5076501;28;20049;-92
2023/11/26 04:43:52;;;;;;;3.83;1.88;;;;;;;-0.09;71.96;98103.41;5075972;28;20043;-92
2023/11/26 04:46:18;;;;;;;4.03;1.35;;;;;;;0.52;71.87;98218.75;5074524;28;20033;-90
2023/11/26 04:48:44;;;;;;;2.65;1.50;;;;;;;-0.27;72.40;98094.63;5075833;28;20106;-91
2023/11/26 04:51:09;;;;;;;2.03;1.42;;;;;;;-0.29;72.46;98085.03;5075518;28;20127;-91
2023/11/26 04:53:36;;;;;;;4.45;1.55;;;;;;;-0.10;72.47;98136.50;5075739;28;20059;-92
2023/11/26 04:56:03;;;;;;;2.95;1.67;;;;;;;0.55;72.17;98221.34;5075555;28;20498;-91
2023/11/26 04:58:29;;;;;;;2.92;1.27;;;;;;;0.15;72.84;98217.66;5075653;28;20036;-91
2023/11/26 05:00:55;;;;;;;3.72;1.52;;;;;;;-0.60;73.25;98095.31;5072803;28;20050;-92
2023/11/26 05:03:22;;;;;;;3.33;1.90;;;;;;;0.06;73.80;98189.72;5075360;28;20482;-91
2023/11/26 05:05:48;;;;;;;5.32;1.75;;;;;;;0.38;74.39;98242.19;5075349;28;20041;-91
2023/11/26 05:08:14;;;;;;;3.90;1.73;;;;;;;-0.64;76.62;98120.50;5075916;28;20044;-91
2023/11/26 05:10:39;;;;;;;4.28;2.45;;;;;;;-0.07;75.01;98191.41;5075071;28;20394;-91
2023/11/26 05:13:07;;;;;;;3.67;2.15;;;;;;;-0.50;75.56;98123.25;5075514;28;20489;-92
2023/11/26 05:15:33;;;;;;;4.53;1.83;;;;;;;-0.02;75.48;98222.81;5074043;28;20041;-91
2023/11/26 05:17:59;;;;;;;5.10;1.40;;;;;;;-0.29;76.21;98168.63;5075937;28;20139;-91
2023/11/26 05:20:26;;;;;;;6.95;2.22;;;;;;;-0.02;76.62;98259.41;5075412;28;20521;-92
2023/11/26 05:22:53;;;;;;;4.78;1.83;;;;;;;0.17;77.17;98295.28;5075837;28;20090;-92
2023/11/26 05:25:20;;;;;;;3.05;1.70;;;;;;;-0.37;76.59;98210.34;5074228;28;20044;-89
2023/11/26 05:27:46;;;;;;;3.65;1.70;;;;;;;-0.19;76.63;98214.00;5074445;28;20064;-92
2023/11/26 05:30:14;;;;;;;3.28;1.63;;;;;;;-0.17;76.45;98243.59;5074307;28;20044;-90
2023/11/26 05:32:40;;;;;;;2.58;1.33;;;;;;;-0.69;78.25;98204.91;5074159;28;20040;-92
2023/11/26 05:35:13;;;;;;;9.10;1.52;;;;;;;-0.45;78.46;98236.44;5074138;28;20040;-91
2023/11/26 05:37:41;;;;;;;2.65;1.73;;;;;;;-0.34;77.75;98238.28;5073960;28;20033;-91
2023/11/26 05:40:09;;;;;;;5.13;1.50;;;;;;;-0.15;76.57;98262.78;5072221;28;20044;-92
2023/11/26 05:42:35;;;;;;;4.03;2.33;;;;;;;-0.35;77.76;98226.91;5073516;28;20047;-91
2023/11/26 05:45:02;;;;;;;7.30;2.40;;;;;;;-0.29;81.21;98320.16;5073847;28;20102;-89
2023/11/26 05:47:29;;;;;;;3.17;1.85;;;;;;;-0.84;79.95;98195.22;5074428;28;20452;-91
2023/11/26 05:49:55;;;;;;;4.00;1.60;;;;;;;-0.84;79.22;98182.16;5073834;28;20044;-90
2023/11/26 05:52:21;;;;;;;5.95;2.05;;;;;;;-0.96;79.32;98247.28;5072706;28;20036;-93
2023/11/26 05:54:47;;;;;;;6.53;1.58;;;;;;;-0.38;77.87;98291.34;5074754;28;20071;-91
2023/11/26 05:57:12;;;;;;;3.42;1.85;;;;;;;-0.42;79.31;98309.59;5074244;28;20040;-90
2023/11/26 05:59:39;;;;;;;6.13;2.30;;;;;;;-1.08;78.63;98188.03;5074508;28;20048;-90
2023/11/26 06:02:06;;;;;;;7.22;2.42;;;;;;;-1.39;78.05;98166.81;5073085;28;20040;-92
2023/11/26 06:04:33;;;;;;;3.03;1.42;;;;;;;-1.26;80.40;98186.97;5074548;28;20036;-92
2023/11/26 06:06:59;;;;;;;4.40;2.40;;;;;;;-0.91;79.18;98229.91;5074039;28;20083;-92
2023/11/26 06:09:26;;;;;;;3.72;2.00;;;;;;;-0.65;79.10;98290.22;5075378;28;20036;-92
2023/11/26 06:11:52;;;;;;;4.07;1.50;;;;;;;-0.48;78.47;98283.44;5074497;28;20397;-93
2023/11/26 06:14:18;;;;;;;3.50;1.23;;;;;;;-0.79;76.02;98205.69;5075550;28;20066;-93
2023/11/26 06:16:45;;;;;;;2.90;1.48;;;;;;;-0.90;76.40;98198.63;5073785;28;20125;-92
2023/11/26 06:19:11;;;;;;;3.03;1.20;;;;;;;-0.11;75.64;98311.59;5074771;28;20072;-92
2023/11/26 06:21:38;;;;;;;3.30;1.92;;;;;;;-0.68;75.83;98217.09;5074257;28;20090;-91
2023/11/26 06:24:05;;;;;;;1.98;1.33;;;;;;;-0.80;76.46;98246.59;5074628;28;20052;-93
2023/11/26 06:26:31;;;;;;;2.40;1.60;;;;;;;-0.23;76.98;98315.00;5074335;28;20040;-91
2023/11/26 06:28:58;;;;;;;5.32;1.70;;;;;;;-0.35;75.63;98276.56;5074826;28;20086;-92
2023/11/26 06:31:24;;;;;;;3.45;1.58;;;;;;;-0.84;75.69;98177.81;5073509;28;20028;-92
2023/11/26 06:33:51;;;;;;;4.03;1.67;;;;;;;-0.60;75.09;98204.09;5074635;28;20429;-90
2023/11/26 06:36:18;;;;;;;4.07;1.63;;;;;;;-0.54;76.04;98240.69;5074467;28;20036;-92
2023/11/26 06:38:45;;;;;;;3.45;1.52;;;;;;;-0.58;76.19;98228.50;5074724;28;20047;-91
2023/11/26 06:41:20;;;;;;;4.28;1.75;;;;;;;-0.17;77.98;98320.28;5074643;28;20036;-91
2023/11/26 06:43:46;;;;;;;2.75;1.80;;;;;;;-0.77;77.49;98215.28;5072593;28;20046;-92
2023/11/26 06:46:16;;;;;;;3.25;2.35;;;;;;;-0.55;77.35;98262.47;5073015;28;20044;-90
2023/11/26 06:48:43;;;;;;;4.47;2.03;;;;;;;0.15;77.10;98364.97;5073523;28;20028;-90
2023/11/26 06:51:09;;;;;;;5.60;2.30;;;;;;;-0.81;75.97;98182.16;5073956;28;20520;-91
2023/11/26 06:53:35;;;;;;;2.65;1.67;;;;;;;0.09;77.73;98332.69;5074066;28;20114;-92
2023/11/26 06:56:03;;;;;;;6.07;2.38;;;;;;;0.19;77.28;98332.72;5074861;28;20044;-92
2023/11/26 06:58:29;;;;;;;5.35;2.60;;;;;;;-0.03;76.15;98276.81;5072292;28;20127;-93
2023/11/26 07:00:55;;;;;;;5.00;2.55;;;;;;;-0.33;77.31;98251.31;5073368;28;20051;-92
2023/11/26 07:03:21;;;;;;;3.55;2.53;;;;;;;0.08;77.50;98300.41;5074292;28;20040;-92
2023/11/26 07:05:46;;;;;;;6.63;3.05;;;;;;;-0.19;78.54;98258.41;5073761;28;20440;-91
2023/11/26 07:08:12;;;;;;;5.40;3.45;;;;;;;0.54;78.83;98367.84;5074707;28;20048;-92
2023/11/26 07:10:38;;;;;;;6.13;3.08;;;;;;;-0.07;78.98;98255.88;5074407;28;20040;-92
2023/11/26 07:13:06;;;;;;;7.85;2.83;;;;;;;0.31;79.22;98307.56;5073651;28;20087;-92
2023/11/26 07:15:32;;;;;;;4.68;2.70;;;;;;;0.59;77.99;98340.84;5072381;28;20075;-92
2023/11/26 07:17:59;;;;;;;6.18;2.13;;;;;;;0.94;76.96;98376.81;5074466;28;20037;-92
2023/11/26 07:20:25;;;;;;;4.15;2.42;;;;;;;0.09;76.26;98231.59;5074236;28;20064;-90
2023/11/26 07:22:51;;;;;;;4.78;2.63;;;;;;;0.76;75.77;98340.94;5074509;28;20043;-91
2023/11/26 07:25:19;;;;;;;5.63;2.60;;;;;;;0.36;74.78;98264.84;5073600;28;20423;-89
2023/11/26 07:27:44;;;;;;;10.45;3.17;;;;;;;0.45;75.07;98266.63;5072053;28;20032;-91
2023/11/26 07:30:14;;;;;;;19.48;5.35;;;;;;;0.86;75.22;98335.75;5072296;28;20036;-91
2023/11/26 07:32:42;;;;;;;7.13;3.38;;;;;;;0.60;74.03;98242.28;5073687;28;20131;-93
2023/11/26 07:35:08;;;;;;;4.05;2.65;;;;;;;0.74;72.55;98255.44;5073638;28;20045;-91
2023/11/26 07:37:35;;;;;;;8.18;3.28;;;;;;;0.89;72.13;98255.50;5073660;28;21496;-93
2023/11/26 07:40:01;;;;;;;5.60;2.97;;;;;;;1.12;72.08;98286.09;5073528;28;20048;-92
2023/11/26 07:42:27;;;;;;;6.53;2.75;;;;;;;2.09;71.01;98405.09;5074293;28;20047;-91
2023/11/26 07:44:55;;;;;;;7.10;3.80;;;;;;;1.74;71.30;98334.28;5074209;28;20032;-92
2023/11/26 07:47:23;;;;;;;7.88;4.00;;;;;;;1.56;71.21;98290.53;5070848;28;20048;-91
2023/11/26 07:49:49;;;;;;;7.45;3.70;;;;;;;1.66;70.57;98289.69;5072868;28;20043;-91
2023/11/26 07:52:14;;;;;;;7.30;4.03;;;;;;;1.44;70.58;98234.66;5074374;28;20523;-92
2023/11/26 07:54:40;;;;;;;5.35;2.55;;;;;;;2.74;68.61;98415.56;5072154;28;20040;-92
2023/11/26 07:57:06;;;;;;;5.88;2.47;;;;;;;2.12;65.18;98296.66;5073385;28;20036;-92
2023/11/26 07:59:32;;;;;;;6.88;2.53;;;;;;;1.95;64.11;98231.13;5077600;28;20040;-93
2023/11/26 08:02:10;;;;;;;4.05;2.08;;;;;;;2.04;60.49;98267.84;5076971;28;20044;-90
2023/11/26 08:04:39;;;;;;;2.03;1.30;;;;;;;1.94;58.21;98261.72;5078696;28;20053;-91
2023/11/26 08:07:23;;;;;;;3.22;1.20;;;;;;;1.84;55.55;98234.66;5078001;28;20387;-90
2023/11/26 08:09:56;;;;;;;2.75;1.42;;;;;;;2.30;55.83;98259.03;5079142;28;20033;-91
2023/11/26 08:12:33;;;;;;;3.33;1.10;;;;;;;2.57;55.25;98253.72;5080294;28;20402;-93
2023/11/26 08:15:25;;;;;;;1.27;0.88;;;;;;;2.96;54.57;98264.94;5079114;28;20595;-91
2023/11/26 08:19:12;;;;;;;;;;;;;;;;;;;;;
2023/11/26 08:21:34;;;;;;;2.88;1.45;;;;;;;2.58;55.53;98286.97;5060323;28;20044;-93
2023/11/26 08:24:17;;;;;;;2.53;1.38;;;;;;;2.76;54.04;98291.28;5078821;28;20045;-92
2023/11/26 08:26:54;;;;;;;2.17;0.68;;;;;;;2.87;52.74;98289.47;5080430;28;20434;-94
2023/11/26 08:29:45;;;;;;;3.25;1.48;;;;;;;2.23;52.16;98274.81;5053486;28;20104;-94
2023/11/26 08:32:19;;;;;;;2.38;1.25;;;;;;;3.42;54.71;98456.53;5078144;28;20496;-91
2023/11/26 08:34:49;;;;;;;2.22;1.10;;;;;;;3.82;53.71;98476.56;5077536;28;20068;-91
2023/11/26 08:37:24;;;;;;;1.63;1.13;;;;;;;3.20;54.01;98316.47;5081473;28;20102;-91
2023/11/26 08:39:56;;;;;;;2.72;1.00;;;;;;;3.34;52.12;98329.56;5076432;28;20055;-93
2023/11/26 08:42:28;;;;;;;3.60;1.02;;;;;;;3.22;52.07;98309.47;5079057;28;20045;-91
2023/11/26 08:44:56;;;;;;;3.35;2.13;;;;;;;3.46;52.88;98373.28;5079275;28;20052;-92
2023/11/26 08:47:28;;;;;;;2.78;1.50;;;;;;;3.32;51.93;98291.91;5078451;28;20100;-90
2023/11/26 08:50:09;;;;;;;2.70;1.08;;;;;;;3.63;51.77;98289.06;5078654;28;20178;-93
2023/11/26 08:52:40;;;;;;;2.00;1.25;;;;;;;4.23;50.81;98385.94;5076814;28;20428;-93
2023/11/26 08:55:13;;;;;;;2.90;1.33;;;;;;;4.46;48.97;98362.06;5081004;28;20051;-93
2023/11/26 08:57:54;;;;;;;3.83;1.30;;;;;;;4.31;48.99;98286.75;5077665;28;20036;-93
2023/11/26 09:00:41;;;;;;;3.90;1.95;;;;;;;5.45;47.29;98441.84;5071802;28;20051;-90
2023/11/26 09:03:12;;;;;;;3.58;1.40;;;;;;;5.20;46.63;98353.38;5077975;28;20123;-93
2023/11/26 09:05:43;;;;;;;2.90;1.15;;;;;;;5.73;45.79;98438.88;5078112;28;20107;-92
2023/11/26 09:08:16;;;;;;;4.22;1.58;;;;;;;5.77;45.95;98432.66;5075530;28;20036;-92
2023/11/26 09:10:49;;;;;;;4.00;1.65;;;;;;;4.79;46.49;98273.06;5076463;28;20033;-94
2023/11/26 09:13:16;;;;;;;3.33;1.35;;;;;;;5.96;48.27;98438.56;5077176;28;20391;-90
2023/11/26 09:15:48;;;;;;;4.47;2.00;;;;;;;5.71;48.15;98383.47;5075879;28;20041;-92
2023/11/26 09:18:29;;;;;;;3.35;1.63;;;;;;;5.41;48.71;98310.06;5076610;28;20037;-93
2023/11/26 09:20:55;;;;;;;3.97;2.10;;;;;;;6.37;47.12;98460.88;5073630;28;20043;-93
2023/11/26 09:23:33;;;;;;;3.22;1.45;;;;;;;6.16;46.94;98407.50;5077886;28;20060;-95
2023/11/26 09:26:02;;;;;;;4.32;1.67;;;;;;;6.50;45.29;98459.78;5077228;28;20135;-93
2023/11/26 09:28:32;;;;;;;19.60;7.53;;;;;;;6.11;46.65;98397.88;5077956;28;20071;-93
2023/11/26 09:31:18;;;;;;;16.23;5.82;;;;;;;6.54;46.08;98464.13;5073961;28;20040;-93
2023/11/26 09:33:44;;;;;;;7.70;3.13;;;;;;;6.02;46.38;98345.25;5075486;28;20102;-92
2023/11/26 09:36:52;;;;;;;;;;;;;;;;;;;;;
2023/11/26 09:39:47;;;;;;;5.50;2.03;;;;;;;5.81;45.42;98335.84;4995882;28;20062;-95
2023/11/26 09:43:21;;;;;;;3.92;1.75;;;;;;;6.75;44.00;98444.41;5014046;28;20053;-93
2023/11/26 09:46:06;;;;;;;4.85;1.38;;;;;;;5.94;44.61;98385.84;5012994;28;20566;-93
2023/11/26 09:48:32;;;;;;;2.83;1.30;;;;;;;5.97;44.23;98324.22;4997236;28;20393;-92
2023/11/26 09:50:59;;;;;;;4.32;2.08;;;;;;;6.49;43.03;98399.06;4997482;28;20076;-91
2023/11/26 09:53:37;;;;;;;4.38;1.63;;;;;;;5.91;44.49;98395.50;4997540;28;20057;-92
2023/11/26 09:56:25;;;;;;;3.95;2.03;;;;;;;5.75;44.23;98342.97;4996679;28;20555;-91
2023/11/26 09:59:28;;;;;;;5.90;1.70;;;;;;;5.88;42.64;98288.25;4996820;28;20042;-92
2023/11/26 10:02:02;;;;;;;5.80;2.00;;;;;;;6.25;42.54;98310.56;4991973;28;20042;-92
2023/11/26 10:04:47;;;;;;;3.78;1.80;;;;;;;6.31;41.83;98295.47;5072993;28;20036;-91
2023/11/26 10:07:37;;;;;;;5.45;1.80;;;;;;;7.43;40.86;98474.03;5073374;28;20047;-92
2023/11/26 10:10:09;;;;;;;5.05;1.42;;;;;;;7.01;40.98;98382.28;5071534;28;20044;-91
2023/11/26 10:12:59;;;;;;;3.30;1.30;;;;;;;7.00;40.54;98388.44;5072346;28;20048;-92
2023/11/26 10:15:40;;;;;;;4.07;1.58;;;;;;;7.57;41.09;98490.53;5069228;28;20064;-93
2023/11/26 10:18:07;;;;;;;2.22;1.30;;;;;;;7.27;39.26;98444.38;5071561;28;20401;-91
2023/11/26 10:20:35;;;;;;;1.80;1.02;;;;;;;6.76;39.48;98356.28;5068146;28;20842;-92
2023/11/26 10:23:01;;;;;;;3.55;1.33;;;;;;;6.92;39.11;98379.81;5074332;28;20036;-93
2023/11/26 10:25:40;;;;;;;4.60;1.83;;;;;;;7.02;40.29;98378.72;5072334;28;20039;-92
2023/11/26 10:28:41;;;;;;;4.28;1.77;;;;;;;7.72;40.00;98497.28;5072344;28;20040;-92
2023/11/26 10:31:42;;;;;;;3.28;1.75;;;;;;;7.41;39.36;98467.00;5068048;28;20398;-91
2023/11/26 10:34:41;;;;;;;5.10;1.85;;;;;;;6.62;40.23;98315.19;5070592;28;20060;-91
2023/11/26 10:37:51;;;;;;;5.65;2.28;;;;;;;6.89;42.24;98364.00;5072477;28;20036;-91
2023/11/26 10:41:05;;;;;;;3.90;1.60;;;;;;;7.55;42.34;98481.75;5069118;28;20041;-93
2023/11/26 10:44:07;;;;;;;3.55;1.40;;;;;;;7.51;41.73;98477.41;5073249;28;20048;-93
2023/11/26 10:46:52;;;;;;;5.65;1.92;;;;;;;7.23;41.34;98448.84;4993493;28;20589;-92
2023/11/26 10:49:29;;;;;;;6.53;1.83;;;;;;;7.24;42.47;98447.94;4994724;28;20045;-93
2023/11/26 10:52:29;;;;;;;4.65;1.92;;;;;;;7.52;43.95;98487.09;4994578;28;20042;-91
2023/11/26 10:55:08;;;;;;;2.95;1.50;;;;;;;6.66;40.81;98374.97;4994640;28;20045;-92
2023/11/26 10:57:40;;;;;;;3.45;1.60;;;;;;;6.11;40.53;98295.81;4995529;28;20479;-92
2023/11/26 11:00:37;;;;;;;3.75;1.65;;;;;;;7.39;40.60;98486.44;4996424;28;20109;-92
2023/11/26 11:03:08;;;;;;;4.55;1.70;;;;;;;6.26;42.09;98296.44;4992533;28;20034;-91
2023/11/26 11:05:34;;;;;;;4.00;2.15;;;;;;;6.45;41.62;98326.06;4993650;28;20467;-90
2023/11/26 11:08:01;;;;;;;9.10;3.08;;;;;;;6.53;41.52;98325.03;4995172;28;20096;-93
2023/11/26 11:10:42;;;;;;;7.65;2.80;;;;;;;7.04;42.46;98411.28;4994739;28;20053;-93
2023/11/26 11:13:16;;;;;;;4.80;2.58;;;;;;;6.48;42.90;98315.41;4994393;28;20049;-91
2023/11/26 11:15:43;;;;;;;5.32;2.20;;;;;;;7.35;41.52;98476.81;4991548;28;20132;-91
2023/11/26 11:18:40;;;;;;;7.43;3.03;;;;;;;6.62;42.12;98331.03;4994004;28;20049;-92
2023/11/26 11:21:18;;;;;;;4.32;2.47;;;;;;;6.59;42.14;98316.09;4965460;28;20041;-91
2023/11/26 11:23:47;;;;;;;3.47;2.05;;;;;;;6.72;42.94;98322.03;5038275;28;20486;-95
2023/11/26 11:26:17;;;;;;;4.68;1.90;;;;;;;7.76;41.90;98493.66;5072590;28;20400;-92
2023/11/26 11:28:46;;;;;;;5.35;2.25;;;;;;;6.67;41.62;98334.47;5073869;28;20040;-92
2023/11/26 11:31:22;;;;;;;5.80;1.95;;;;;;;7.66;40.80;98497.44;5070183;28;20108;-91
2023/11/26 11:34:30;;;;;;;;;;;;;;;;;;;;;
2023/11/26 11:37:40;;;;;;;3.42;2.55;;;;;;;7.82;42.58;98485.59;5081967;28;20119;-92
2023/11/26 11:40:11;;;;;;;5.50;2.42;;;;;;;7.09;42.21;98353.03;5076911;28;20050;-92
2023/11/26 11:43:30;;;;;;;5.47;3.00;;;;;;;6.97;41.27;98306.56;5078098;28;20044;-89
2023/11/26 11:46:42;;;;;;;9.80;4.40;;;;;;;8.08;41.81;98478.91;5077163;28;20474;-92
2023/11/26 11:49:12;;;;;;;6.28;3.00;;;;;;;7.91;42.22;98440.41;5096451;28;20032;-92
2023/11/26 11:51:44;;;;;;;5.20;2.58;;;;;;;8.16;41.28;98477.81;5074096;28;20501;-90
2023/11/26 11:57:51;;;;;;;7.47;3.13;;;;;;;7.10;40.71;98284.28;4968331;28;20072;-93
2023/11/26 12:00:33;;;;;;;11.48;3.80;;;;;;;7.14;41.69;98285.94;4977449;28;20034;-92
2023/11/26 12:03:11;;;;;;;8.85;3.28;;;;;;;7.44;42.76;98319.69;4979304;28;20050;-91
2023/11/26 12:05:37;;;;;;;6.43;3.05;;;;;;;7.51;43.29;98314.25;4978011;28;20043;-91
2023/11/26 12:08:14;;;;;;;9.82;3.45;;;;;;;7.53;42.38;98288.63;4978006;28;20049;-91
2023/11/26 12:10:40;;;;;;;12.25;4.15;;;;;;;7.50;42.49;98272.81;4977837;28;20049;-93